GOBD

Blaise Diagne International Airport

Dakar, Senegal
METAR GOBD 180030Z 35009KT 8000 NSC 26/24 Q1013 NOSIG
Observed Flight Rules
Oct-18 @ 00:30 UTC (16 minutes ago) Marginal Visual Flight Rules
Wind Visibility Clouds
350° at 9 knots 7,998 meters
  • Clear skies
Temperatures Readings
Current 26°C / 79°F
Dewpoint 24°C / 75°F
Humidity 89%
Altimeter 29.91" Hg
Pressure 1013 hPa
Elevation 88
METAR GOBD 180030Z 35009KT 8000 NSC 26/24 Q1013 NOSIG
Observed Flight Rules
Oct-18 @ 00:30 UTC
(16 minutes ago)
MVFR
Wind Visibility
350° at 9 knots 7,998 meters
Clouds
  • Clear skies
Temperature Dewpoint
26°C / 79°F 24°C / 75°F
Humidity Altimeter Pressure
89% 29.91" Hg 1013 hPa